sensor_id;sensor_type;location;lat;lon;timestamp;temperature;humidity
36654;DHT22;22650;49.350;20.898;2022-11-14T00:02:52;4.20;99.90
36654;DHT22;22650;49.350;20.898;2022-11-14T00:05:46;4.20;99.90
36654;DHT22;22650;49.350;20.898;2022-11-14T00:08:38;4.10;99.90
36654;DHT22;22650;49.350;20.898;2022-11-14T00:11:30;4.10;99.90
36654;DHT22;22650;49.350;20.898;2022-11-14T00:14:22;4.00;99.90
36654;DHT22;22650;49.350;20.898;2022-11-14T00:17:14;4.00;99.90
36654;DHT22;22650;49.350;20.898;2022-11-14T00:20:09;4.00;99.90
36654;DHT22;22650;49.350;20.898;2022-11-14T00:23:02;4.00;99.90
36654;DHT22;22650;49.350;20.898;2022-11-14T00:25:55;3.90;99.90
36654;DHT22;22650;49.350;20.898;2022-11-14T00:28:47;3.80;99.90
36654;DHT22;22650;49.350;20.898;2022-11-14T00:31:39;3.80;99.90
36654;DHT22;22650;49.350;20.898;2022-11-14T00:34:31;3.80;99.90
36654;DHT22;22650;49.350;20.898;2022-11-14T00:37:23;3.80;99.90
36654;DHT22;22650;49.350;20.898;2022-11-14T00:40:18;3.80;99.90
36654;DHT22;22650;49.350;20.898;2022-11-14T00:43:10;3.70;99.90
36654;DHT22;22650;49.350;20.898;2022-11-14T00:46:02;3.70;99.90
36654;DHT22;22650;49.350;20.898;2022-11-14T00:48:53;3.70;99.90
36654;DHT22;22650;49.350;20.898;2022-11-14T00:51:45;3.70;99.90
36654;DHT22;22650;49.350;20.898;2022-11-14T00:54:37;3.70;99.90
36654;DHT22;22650;49.350;20.898;2022-11-14T00:57:31;3.70;99.90
36654;DHT22;22650;49.350;20.898;2022-11-14T01:00:22;3.60;99.90
36654;DHT22;22650;49.350;20.898;2022-11-14T01:03:15;3.60;99.90
36654;DHT22;22650;49.350;20.898;2022-11-14T01:06:09;3.60;99.90
36654;DHT22;22650;49.350;20.898;2022-11-14T01:09:01;3.60;99.90
36654;DHT22;22650;49.350;20.898;2022-11-14T01:11:54;3.50;99.90
36654;DHT22;22650;49.350;20.898;2022-11-14T01:14:47;3.50;99.90
36654;DHT22;22650;49.350;20.898;2022-11-14T01:17:39;3.40;99.90
36654;DHT22;22650;49.350;20.898;2022-11-14T01:20:31;3.40;99.90
36654;DHT22;22650;49.350;20.898;2022-11-14T01:23:23;3.40;99.90
36654;DHT22;22650;49.350;20.898;2022-11-14T01:26:16;3.30;99.90
36654;DHT22;22650;49.350;20.898;2022-11-14T01:29:08;3.30;99.90
36654;DHT22;22650;49.350;20.898;2022-11-14T01:32:01;3.30;99.90
36654;DHT22;22650;49.350;20.898;2022-11-14T01:34:53;3.30;99.90
36654;DHT22;22650;49.350;20.898;2022-11-14T01:37:45;3.30;99.90
36654;DHT22;22650;49.350;20.898;2022-11-14T01:40:40;3.30;99.90
36654;DHT22;22650;49.350;20.898;2022-11-14T01:43:35;3.30;99.90
36654;DHT22;22650;49.350;20.898;2022-11-14T01:46:29;3.30;99.90
36654;DHT22;22650;49.350;20.898;2022-11-14T01:49:25;3.30;99.90
36654;DHT22;22650;49.350;20.898;2022-11-14T01:52:20;3.30;99.90
36654;DHT22;22650;49.350;20.898;2022-11-14T01:55:14;3.30;99.90
36654;DHT22;22650;49.350;20.898;2022-11-14T01:58:06;3.30;99.90
36654;DHT22;22650;49.350;20.898;2022-11-14T02:00:58;3.30;99.90
36654;DHT22;22650;49.350;20.898;2022-11-14T02:03:52;3.30;99.90
36654;DHT22;22650;49.350;20.898;2022-11-14T02:06:48;3.30;99.90
36654;DHT22;22650;49.350;20.898;2022-11-14T02:09:44;3.30;99.90
36654;DHT22;22650;49.350;20.898;2022-11-14T02:12:37;3.30;99.90
36654;DHT22;22650;49.350;20.898;2022-11-14T02:15:29;3.30;99.90
36654;DHT22;22650;49.350;20.898;2022-11-14T02:18:21;3.40;99.90
36654;DHT22;22650;49.350;20.898;2022-11-14T02:21:15;3.40;99.90
36654;DHT22;22650;49.350;20.898;2022-11-14T02:24:08;3.40;99.90
36654;DHT22;22650;49.350;20.898;2022-11-14T02:27:01;3.40;99.90
36654;DHT22;22650;49.350;20.898;2022-11-14T02:29:53;3.40;99.90
36654;DHT22;22650;49.350;20.898;2022-11-14T02:32:45;3.40;99.90
36654;DHT22;22650;49.350;20.898;2022-11-14T02:35:57;3.40;99.90
36654;DHT22;22650;49.350;20.898;2022-11-14T02:38:50;3.40;99.90
36654;DHT22;22650;49.350;20.898;2022-11-14T02:41:42;3.30;99.90
36654;DHT22;22650;49.350;20.898;2022-11-14T02:44:34;3.30;99.90
36654;DHT22;22650;49.350;20.898;2022-11-14T02:47:26;3.30;99.90
36654;DHT22;22650;49.350;20.898;2022-11-14T02:50:18;3.20;99.90
36654;DHT22;22650;49.350;20.898;2022-11-14T02:53:10;3.20;99.90
36654;DHT22;22650;49.350;20.898;2022-11-14T02:56:04;3.20;99.90
36654;DHT22;22650;49.350;20.898;2022-11-14T02:58:56;3.20;99.90
36654;DHT22;22650;49.350;20.898;2022-11-14T03:01:48;3.20;99.90
36654;DHT22;22650;49.350;20.898;2022-11-14T03:04:41;3.30;99.90
36654;DHT22;22650;49.350;20.898;2022-11-14T03:07:33;3.20;99.90
36654;DHT22;22650;49.350;20.898;2022-11-14T03:10:25;3.20;99.90
36654;DHT22;22650;49.350;20.898;2022-11-14T03:13:18;3.10;99.90
36654;DHT22;22650;49.350;20.898;2022-11-14T03:16:12;3.10;99.90
36654;DHT22;22650;49.350;20.898;2022-11-14T03:19:04;3.00;99.90
36654;DHT22;22650;49.350;20.898;2022-11-14T03:21:56;3.00;99.90
36654;DHT22;22650;49.350;20.898;2022-11-14T03:24:48;3.00;99.90
36654;DHT22;22650;49.350;20.898;2022-11-14T03:27:40;3.00;99.90
36654;DHT22;22650;49.350;20.898;2022-11-14T03:30:33;3.00;99.90
36654;DHT22;22650;49.350;20.898;2022-11-14T03:33:26;3.00;99.90
36654;DHT22;22650;49.350;20.898;2022-11-14T03:36:18;3.00;99.90
36654;DHT22;22650;49.350;20.898;2022-11-14T03:39:11;3.00;99.90
36654;DHT22;22650;49.350;20.898;2022-11-14T03:42:03;3.00;99.90
36654;DHT22;22650;49.350;20.898;2022-11-14T03:44:55;3.00;99.90
36654;DHT22;22650;49.350;20.898;2022-11-14T03:47:48;3.00;99.90
36654;DHT22;22650;49.350;20.898;2022-11-14T03:50:41;3.10;99.90
36654;DHT22;22650;49.350;20.898;2022-11-14T03:53:34;3.10;99.90
36654;DHT22;22650;49.350;20.898;2022-11-14T03:56:26;3.20;99.90
36654;DHT22;22650;49.350;20.898;2022-11-14T03:59:17;3.20;99.90
36654;DHT22;22650;49.350;20.898;2022-11-14T04:02:09;3.20;99.90
36654;DHT22;22650;49.350;20.898;2022-11-14T04:05:02;3.20;99.90
36654;DHT22;22650;49.350;20.898;2022-11-14T04:07:54;3.20;99.90
36654;DHT22;22650;49.350;20.898;2022-11-14T04:10:47;3.20;99.90
36654;DHT22;22650;49.350;20.898;2022-11-14T04:13:39;3.20;99.90
36654;DHT22;22650;49.350;20.898;2022-11-14T04:16:31;3.20;99.90
36654;DHT22;22650;49.350;20.898;2022-11-14T04:19:23;3.10;99.90
36654;DHT22;22650;49.350;20.898;2022-11-14T04:22:16;3.10;99.90
36654;DHT22;22650;49.350;20.898;2022-11-14T04:25:09;3.00;99.90
36654;DHT22;22650;49.350;20.898;2022-11-14T04:28:01;3.10;99.90
36654;DHT22;22650;49.350;20.898;2022-11-14T04:30:53;3.00;99.90
36654;DHT22;22650;49.350;20.898;2022-11-14T04:33:45;3.00;99.90
36654;DHT22;22650;49.350;20.898;2022-11-14T04:36:37;3.00;99.90
36654;DHT22;22650;49.350;20.898;2022-11-14T04:39:30;3.00;99.90
36654;DHT22;22650;49.350;20.898;2022-11-14T04:42:23;2.90;99.90
36654;DHT22;22650;49.350;20.898;2022-11-14T04:45:15;2.90;99.90
36654;DHT22;22650;49.350;20.898;2022-11-14T04:48:08;2.80;99.90
36654;DHT22;22650;49.350;20.898;2022-11-14T04:50:59;2.80;99.90
36654;DHT22;22650;49.350;20.898;2022-11-14T04:53:51;2.80;99.90
36654;DHT22;22650;49.350;20.898;2022-11-14T04:56:45;2.80;99.90
36654;DHT22;22650;49.350;20.898;2022-11-14T04:59:37;2.70;99.90
36654;DHT22;22650;49.350;20.898;2022-11-14T05:02:30;2.70;99.90
36654;DHT22;22650;49.350;20.898;2022-11-14T05:05:22;2.80;99.90
36654;DHT22;22650;49.350;20.898;2022-11-14T05:08:13;2.80;99.90
36654;DHT22;22650;49.350;20.898;2022-11-14T05:11:05;2.70;99.90
36654;DHT22;22650;49.350;20.898;2022-11-14T05:13:59;2.70;99.90
36654;DHT22;22650;49.350;20.898;2022-11-14T05:16:50;2.70;99.90
36654;DHT22;22650;49.350;20.898;2022-11-14T05:19:42;2.70;99.90
36654;DHT22;22650;49.350;20.898;2022-11-14T05:22:34;2.70;99.90
36654;DHT22;22650;49.350;20.898;2022-11-14T05:25:26;2.60;99.90
36654;DHT22;22650;49.350;20.898;2022-11-14T05:28:18;2.50;99.90
36654;DHT22;22650;49.350;20.898;2022-11-14T05:31:13;2.50;99.90
36654;DHT22;22650;49.350;20.898;2022-11-14T05:34:07;2.40;99.90
36654;DHT22;22650;49.350;20.898;2022-11-14T05:36:59;2.50;99.90
36654;DHT22;22650;49.350;20.898;2022-11-14T05:39:53;2.50;99.90
36654;DHT22;22650;49.350;20.898;2022-11-14T05:42:45;2.40;99.90
36654;DHT22;22650;49.350;20.898;2022-11-14T05:45:37;2.50;99.90
36654;DHT22;22650;49.350;20.898;2022-11-14T05:48:31;2.50;99.90
36654;DHT22;22650;49.350;20.898;2022-11-14T05:51:23;2.60;99.90
36654;DHT22;22650;49.350;20.898;2022-11-14T05:54:15;2.60;99.90
36654;DHT22;22650;49.350;20.898;2022-11-14T05:57:07;2.60;99.90
36654;DHT22;22650;49.350;20.898;2022-11-14T05:59:59;2.70;99.90
36654;DHT22;22650;49.350;20.898;2022-11-14T06:02:51;2.70;99.90
36654;DHT22;22650;49.350;20.898;2022-11-14T06:05:44;2.70;99.90
36654;DHT22;22650;49.350;20.898;2022-11-14T06:08:36;2.70;99.90
36654;DHT22;22650;49.350;20.898;2022-11-14T06:11:28;2.60;99.90
36654;DHT22;22650;49.350;20.898;2022-11-14T06:14:20;2.60;99.90
36654;DHT22;22650;49.350;20.898;2022-11-14T06:17:12;2.60;99.90
36654;DHT22;22650;49.350;20.898;2022-11-14T06:20:05;2.70;99.90
36654;DHT22;22650;49.350;20.898;2022-11-14T06:22:58;2.70;99.90
36654;DHT22;22650;49.350;20.898;2022-11-14T06:25:50;2.70;99.90
36654;DHT22;22650;49.350;20.898;2022-11-14T06:28:42;2.70;99.90
36654;DHT22;22650;49.350;20.898;2022-11-14T06:31:34;2.70;99.90
36654;DHT22;22650;49.350;20.898;2022-11-14T06:34:26;2.70;99.90
36654;DHT22;22650;49.350;20.898;2022-11-14T06:37:18;2.70;99.90
36654;DHT22;22650;49.350;20.898;2022-11-14T06:40:12;2.60;99.90
36654;DHT22;22650;49.350;20.898;2022-11-14T06:43:04;2.60;99.90
36654;DHT22;22650;49.350;20.898;2022-11-14T06:45:56;2.60;99.90
36654;DHT22;22650;49.350;20.898;2022-11-14T06:48:49;2.60;99.90
36654;DHT22;22650;49.350;20.898;2022-11-14T06:51:42;2.60;99.90
36654;DHT22;22650;49.350;20.898;2022-11-14T06:54:34;2.60;99.90
36654;DHT22;22650;49.350;20.898;2022-11-14T06:57:27;2.60;99.90
36654;DHT22;22650;49.350;20.898;2022-11-14T07:00:20;2.70;99.90
36654;DHT22;22650;49.350;20.898;2022-11-14T07:03:11;2.70;99.90
36654;DHT22;22650;49.350;20.898;2022-11-14T07:06:05;2.70;99.90
36654;DHT22;22650;49.350;20.898;2022-11-14T07:08:57;2.70;99.90
36654;DHT22;22650;49.350;20.898;2022-11-14T07:11:49;2.70;99.90
36654;DHT22;22650;49.350;20.898;2022-11-14T07:14:42;2.70;99.90
36654;DHT22;22650;49.350;20.898;2022-11-14T07:17:34;2.70;99.90
36654;DHT22;22650;49.350;20.898;2022-11-14T07:20:26;2.70;99.90
36654;DHT22;22650;49.350;20.898;2022-11-14T07:23:18;2.80;99.90
36654;DHT22;22650;49.350;20.898;2022-11-14T07:26:12;2.80;99.90
36654;DHT22;22650;49.350;20.898;2022-11-14T07:29:04;2.80;99.90
36654;DHT22;22650;49.350;20.898;2022-11-14T07:31:57;2.80;99.90
36654;DHT22;22650;49.350;20.898;2022-11-14T07:34:49;2.80;99.90
36654;DHT22;22650;49.350;20.898;2022-11-14T07:37:41;2.90;99.90
36654;DHT22;22650;49.350;20.898;2022-11-14T07:40:33;2.90;99.90
36654;DHT22;22650;49.350;20.898;2022-11-14T07:43:25;2.90;99.90
36654;DHT22;22650;49.350;20.898;2022-11-14T07:46:17;2.90;99.90
36654;DHT22;22650;49.350;20.898;2022-11-14T07:49:10;2.90;99.90
36654;DHT22;22650;49.350;20.898;2022-11-14T07:52:02;3.00;99.90
36654;DHT22;22650;49.350;20.898;2022-11-14T07:54:54;3.00;99.90
36654;DHT22;22650;49.350;20.898;2022-11-14T07:57:46;3.10;99.90
36654;DHT22;22650;49.350;20.898;2022-11-14T08:00:39;3.10;99.90
36654;DHT22;22650;49.350;20.898;2022-11-14T08:03:31;3.20;99.90
36654;DHT22;22650;49.350;20.898;2022-11-14T08:06:25;3.20;99.90
36654;DHT22;22650;49.350;20.898;2022-11-14T08:09:16;3.30;99.90
36654;DHT22;22650;49.350;20.898;2022-11-14T08:12:08;3.30;99.90
36654;DHT22;22650;49.350;20.898;2022-11-14T08:15:01;3.30;99.90
36654;DHT22;22650;49.350;20.898;2022-11-14T08:17:56;3.40;99.90
36654;DHT22;22650;49.350;20.898;2022-11-14T08:20:48;3.40;99.90
36654;DHT22;22650;49.350;20.898;2022-11-14T08:23:41;3.50;99.90
36654;DHT22;22650;49.350;20.898;2022-11-14T08:26:34;3.60;99.90
36654;DHT22;22650;49.350;20.898;2022-11-14T08:29:26;3.60;99.90
36654;DHT22;22650;49.350;20.898;2022-11-14T08:32:19;3.60;99.90
36654;DHT22;22650;49.350;20.898;2022-11-14T08:35:11;3.70;99.90
36654;DHT22;22650;49.350;20.898;2022-11-14T08:38:03;3.70;99.90
36654;DHT22;22650;49.350;20.898;2022-11-14T08:40:58;3.70;99.90
36654;DHT22;22650;49.350;20.898;2022-11-14T08:43:50;3.80;99.90
36654;DHT22;22650;49.350;20.898;2022-11-14T08:46:42;3.80;99.90
36654;DHT22;22650;49.350;20.898;2022-11-14T08:49:33;3.90;99.90
36654;DHT22;22650;49.350;20.898;2022-11-14T08:52:25;3.90;99.90
36654;DHT22;22650;49.350;20.898;2022-11-14T08:55:17;4.00;99.90
36654;DHT22;22650;49.350;20.898;2022-11-14T08:58:10;4.10;99.90
36654;DHT22;22650;49.350;20.898;2022-11-14T09:01:02;4.10;99.90
36654;DHT22;22650;49.350;20.898;2022-11-14T09:03:54;4.20;99.90
36654;DHT22;22650;49.350;20.898;2022-11-14T09:06:49;4.20;99.90
36654;DHT22;22650;49.350;20.898;2022-11-14T09:09:42;4.20;99.90
36654;DHT22;22650;49.350;20.898;2022-11-14T09:12:34;4.30;99.90
36654;DHT22;22650;49.350;20.898;2022-11-14T09:15:27;4.40;99.90
36654;DHT22;22650;49.350;20.898;2022-11-14T09:18:19;4.40;99.90
36654;DHT22;22650;49.350;20.898;2022-11-14T09:21:12;4.50;99.90
36654;DHT22;22650;49.350;20.898;2022-11-14T09:24:04;4.50;99.90
36654;DHT22;22650;49.350;20.898;2022-11-14T09:26:56;4.60;99.90
36654;DHT22;22650;49.350;20.898;2022-11-14T09:29:48;4.70;99.90
36654;DHT22;22650;49.350;20.898;2022-11-14T09:32:41;4.70;99.90
36654;DHT22;22650;49.350;20.898;2022-11-14T09:35:33;4.80;99.90
36654;DHT22;22650;49.350;20.898;2022-11-14T09:38:27;4.90;99.90
36654;DHT22;22650;49.350;20.898;2022-11-14T09:41:40;4.90;99.90
36654;DHT22;22650;49.350;20.898;2022-11-14T09:44:52;5.00;99.90
36654;DHT22;22650;49.350;20.898;2022-11-14T09:47:49;5.10;99.90
36654;DHT22;22650;49.350;20.898;2022-11-14T09:50:45;5.10;99.90
36654;DHT22;22650;49.350;20.898;2022-11-14T09:53:43;5.20;99.90
36654;DHT22;22650;49.350;20.898;2022-11-14T09:56:36;5.20;99.90
36654;DHT22;22650;49.350;20.898;2022-11-14T09:59:28;5.20;99.90
36654;DHT22;22650;49.350;20.898;2022-11-14T10:02:38;5.30;99.90
36654;DHT22;22650;49.350;20.898;2022-11-14T10:05:44;5.40;99.90
36654;DHT22;22650;49.350;20.898;2022-11-14T10:08:46;5.40;99.90
36654;DHT22;22650;49.350;20.898;2022-11-14T10:11:46;5.50;99.90
36654;DHT22;22650;49.350;20.898;2022-11-14T10:14:56;5.60;99.90
36654;DHT22;22650;49.350;20.898;2022-11-14T10:18:30;5.70;99.90
36654;DHT22;22650;49.350;20.898;2022-11-14T10:21:45;5.80;99.90
36654;DHT22;22650;49.350;20.898;2022-11-14T10:24:48;5.90;99.90
36654;DHT22;22650;49.350;20.898;2022-11-14T10:27:48;6.00;99.90
36654;DHT22;22650;49.350;20.898;2022-11-14T10:30:55;6.10;99.90
36654;DHT22;22650;49.350;20.898;2022-11-14T10:33:58;6.20;99.90
36654;DHT22;22650;49.350;20.898;2022-11-14T10:36:59;6.30;99.90
36654;DHT22;22650;49.350;20.898;2022-11-14T10:39:56;6.50;99.90
36654;DHT22;22650;49.350;20.898;2022-11-14T10:42:55;6.50;99.90
36654;DHT22;22650;49.350;20.898;2022-11-14T10:45:51;6.60;99.90
36654;DHT22;22650;49.350;20.898;2022-11-14T10:48:46;6.70;99.90
36654;DHT22;22650;49.350;20.898;2022-11-14T10:51:43;6.80;99.90
36654;DHT22;22650;49.350;20.898;2022-11-14T10:54:40;6.90;99.90
36654;DHT22;22650;49.350;20.898;2022-11-14T10:57:33;7.10;99.90
36654;DHT22;22650;49.350;20.898;2022-11-14T11:00:26;7.20;99.90
36654;DHT22;22650;49.350;20.898;2022-11-14T11:03:18;7.40;99.90
36654;DHT22;22650;49.350;20.898;2022-11-14T11:06:24;7.60;99.90
36654;DHT22;22650;49.350;20.898;2022-11-14T11:09:18;7.70;99.90
36654;DHT22;22650;49.350;20.898;2022-11-14T11:12:42;7.80;99.90
36654;DHT22;22650;49.350;20.898;2022-11-14T11:15:39;8.00;99.90
36654;DHT22;22650;49.350;20.898;2022-11-14T11:18:33;8.10;99.90
36654;DHT22;22650;49.350;20.898;2022-11-14T11:21:25;8.30;99.90
36654;DHT22;22650;49.350;20.898;2022-11-14T11:24:30;8.60;99.90
36654;DHT22;22650;49.350;20.898;2022-11-14T11:27:23;8.80;99.90
36654;DHT22;22650;49.350;20.898;2022-11-14T11:30:21;9.00;99.90
36654;DHT22;22650;49.350;20.898;2022-11-14T11:33:15;9.30;99.90
36654;DHT22;22650;49.350;20.898;2022-11-14T11:36:13;9.50;99.90
36654;DHT22;22650;49.350;20.898;2022-11-14T11:39:09;9.80;99.90
36654;DHT22;22650;49.350;20.898;2022-11-14T11:42:10;9.80;99.90
36654;DHT22;22650;49.350;20.898;2022-11-14T11:45:09;10.00;99.90
36654;DHT22;22650;49.350;20.898;2022-11-14T11:48:12;10.20;99.90
36654;DHT22;22650;49.350;20.898;2022-11-14T11:51:15;10.60;99.90
36654;DHT22;22650;49.350;20.898;2022-11-14T11:54:13;10.90;99.90
36654;DHT22;22650;49.350;20.898;2022-11-14T11:57:12;11.00;99.90
36654;DHT22;22650;49.350;20.898;2022-11-14T12:00:15;11.20;99.90
36654;DHT22;22650;49.350;20.898;2022-11-14T12:03:12;11.30;99.90
36654;DHT22;22650;49.350;20.898;2022-11-14T12:06:14;11.50;99.90
36654;DHT22;22650;49.350;20.898;2022-11-14T12:09:14;11.70;99.90
36654;DHT22;22650;49.350;20.898;2022-11-14T12:12:10;12.10;99.90
36654;DHT22;22650;49.350;20.898;2022-11-14T12:15:12;12.50;99.90
36654;DHT22;22650;49.350;20.898;2022-11-14T12:18:25;12.90;99.90
36654;DHT22;22650;49.350;20.898;2022-11-14T12:21:39;13.30;99.90
36654;DHT22;22650;49.350;20.898;2022-11-14T12:28:05;13.80;99.90
36654;DHT22;22650;49.350;20.898;2022-11-14T12:31:04;14.20;99.90
36654;DHT22;22650;49.350;20.898;2022-11-14T12:34:06;14.30;99.90
36654;DHT22;22650;49.350;20.898;2022-11-14T12:37:07;14.40;99.90
36654;DHT22;22650;49.350;20.898;2022-11-14T12:40:02;14.40;99.90
36654;DHT22;22650;49.350;20.898;2022-11-14T12:42:55;14.40;99.90
36654;DHT22;22650;49.350;20.898;2022-11-14T12:45:57;14.40;99.90
36654;DHT22;22650;49.350;20.898;2022-11-14T12:48:49;14.50;99.90
36654;DHT22;22650;49.350;20.898;2022-11-14T12:51:50;14.50;99.90
36654;DHT22;22650;49.350;20.898;2022-11-14T12:54:44;14.50;99.90
36654;DHT22;22650;49.350;20.898;2022-11-14T12:57:40;14.60;99.90
36654;DHT22;22650;49.350;20.898;2022-11-14T13:01:00;14.40;99.90
36654;DHT22;22650;49.350;20.898;2022-11-14T13:04:10;14.40;99.90
36654;DHT22;22650;49.350;20.898;2022-11-14T13:07:19;14.50;99.90
36654;DHT22;22650;49.350;20.898;2022-11-14T13:10:27;14.40;99.90
36654;DHT22;22650;49.350;20.898;2022-11-14T13:13:22;14.30;99.90
36654;DHT22;22650;49.350;20.898;2022-11-14T13:16:32;14.40;99.90
36654;DHT22;22650;49.350;20.898;2022-11-14T13:19:52;14.40;99.90
36654;DHT22;22650;49.350;20.898;2022-11-14T13:23:03;14.40;99.90
36654;DHT22;22650;49.350;20.898;2022-11-14T13:29:54;14.20;99.90
36654;DHT22;22650;49.350;20.898;2022-11-14T13:32:53;14.20;99.90
36654;DHT22;22650;49.350;20.898;2022-11-14T13:35:55;14.10;99.90
36654;DHT22;22650;49.350;20.898;2022-11-14T13:39:17;14.00;99.90
36654;DHT22;22650;49.350;20.898;2022-11-14T13:42:22;13.90;99.90
36654;DHT22;22650;49.350;20.898;2022-11-14T13:45:39;13.90;99.90
36654;DHT22;22650;49.350;20.898;2022-11-14T13:48:52;13.90;99.90
36654;DHT22;22650;49.350;20.898;2022-11-14T13:51:50;14.00;99.90
36654;DHT22;22650;49.350;20.898;2022-11-14T13:54:48;13.90;99.90
36654;DHT22;22650;49.350;20.898;2022-11-14T13:57:53;13.80;99.90
36654;DHT22;22650;49.350;20.898;2022-11-14T14:01:04;13.70;99.90
36654;DHT22;22650;49.350;20.898;2022-11-14T14:04:15;13.70;99.90
36654;DHT22;22650;49.350;20.898;2022-11-14T14:07:16;13.70;99.90
36654;DHT22;22650;49.350;20.898;2022-11-14T14:10:21;13.60;99.90
36654;DHT22;22650;49.350;20.898;2022-11-14T14:13:29;13.30;99.90
36654;DHT22;22650;49.350;20.898;2022-11-14T14:16:31;13.10;99.90
36654;DHT22;22650;49.350;20.898;2022-11-14T14:19:36;12.90;99.90
36654;DHT22;22650;49.350;20.898;2022-11-14T14:22:40;12.80;99.90
36654;DHT22;22650;49.350;20.898;2022-11-14T14:25:43;12.50;99.90
36654;DHT22;22650;49.350;20.898;2022-11-14T14:28:43;12.30;99.90
36654;DHT22;22650;49.350;20.898;2022-11-14T14:31:42;12.10;99.90
36654;DHT22;22650;49.350;20.898;2022-11-14T14:34:34;11.90;99.90
36654;DHT22;22650;49.350;20.898;2022-11-14T14:37:27;11.60;99.90
36654;DHT22;22650;49.350;20.898;2022-11-14T14:40:23;11.50;99.90
36654;DHT22;22650;49.350;20.898;2022-11-14T14:43:24;11.30;99.90
36654;DHT22;22650;49.350;20.898;2022-11-14T14:46:26;11.10;99.90
36654;DHT22;22650;49.350;20.898;2022-11-14T14:49:21;10.90;99.90
36654;DHT22;22650;49.350;20.898;2022-11-14T14:52:20;10.70;99.90
36654;DHT22;22650;49.350;20.898;2022-11-14T14:55:23;10.50;99.90
36654;DHT22;22650;49.350;20.898;2022-11-14T14:58:25;10.40;99.90
36654;DHT22;22650;49.350;20.898;2022-11-14T15:01:19;10.10;99.90
36654;DHT22;22650;49.350;20.898;2022-11-14T15:04:14;9.90;99.90
36654;DHT22;22650;49.350;20.898;2022-11-14T15:07:17;9.70;99.90
36654;DHT22;22650;49.350;20.898;2022-11-14T15:10:20;9.50;99.90
36654;DHT22;22650;49.350;20.898;2022-11-14T15:13:14;9.30;99.90
36654;DHT22;22650;49.350;20.898;2022-11-14T15:16:08;9.10;99.90
36654;DHT22;22650;49.350;20.898;2022-11-14T15:19:01;8.80;99.90
36654;DHT22;22650;49.350;20.898;2022-11-14T15:22:01;8.70;99.90
36654;DHT22;22650;49.350;20.898;2022-11-14T15:25:05;8.60;99.90
36654;DHT22;22650;49.350;20.898;2022-11-14T15:27:57;8.40;99.90
36654;DHT22;22650;49.350;20.898;2022-11-14T15:30:58;8.30;99.90
36654;DHT22;22650;49.350;20.898;2022-11-14T15:34:03;8.10;99.90
36654;DHT22;22650;49.350;20.898;2022-11-14T15:37:21;8.00;99.90
36654;DHT22;22650;49.350;20.898;2022-11-14T15:40:16;7.70;99.90
36654;DHT22;22650;49.350;20.898;2022-11-14T15:43:48;7.60;99.90
36654;DHT22;22650;49.350;20.898;2022-11-14T15:46:50;7.50;99.90
36654;DHT22;22650;49.350;20.898;2022-11-14T15:49:53;7.30;99.90
36654;DHT22;22650;49.350;20.898;2022-11-14T15:52:48;7.10;99.90
36654;DHT22;22650;49.350;20.898;2022-11-14T15:55:41;6.90;99.90
36654;DHT22;22650;49.350;20.898;2022-11-14T15:58:33;6.80;99.90
36654;DHT22;22650;49.350;20.898;2022-11-14T16:01:25;6.70;99.90
36654;DHT22;22650;49.350;20.898;2022-11-14T16:04:19;6.60;99.90
36654;DHT22;22650;49.350;20.898;2022-11-14T16:07:14;6.50;99.90
36654;DHT22;22650;49.350;20.898;2022-11-14T16:10:13;6.40;99.90
36654;DHT22;22650;49.350;20.898;2022-11-14T16:13:06;6.30;99.90
36654;DHT22;22650;49.350;20.898;2022-11-14T16:15:58;6.20;99.90
36654;DHT22;22650;49.350;20.898;2022-11-14T16:18:50;6.10;99.90
36654;DHT22;22650;49.350;20.898;2022-11-14T16:21:43;6.00;99.90
36654;DHT22;22650;49.350;20.898;2022-11-14T16:24:37;5.90;99.90
36654;DHT22;22650;49.350;20.898;2022-11-14T16:27:28;5.90;99.90
36654;DHT22;22650;49.350;20.898;2022-11-14T16:30:22;5.80;99.90
36654;DHT22;22650;49.350;20.898;2022-11-14T16:33:15;5.70;99.90
36654;DHT22;22650;49.350;20.898;2022-11-14T16:36:09;5.60;99.90
36654;DHT22;22650;49.350;20.898;2022-11-14T16:39:02;5.60;99.90
36654;DHT22;22650;49.350;20.898;2022-11-14T16:42:01;5.50;99.90
36654;DHT22;22650;49.350;20.898;2022-11-14T16:44:58;5.40;99.90
36654;DHT22;22650;49.350;20.898;2022-11-14T16:47:51;5.40;99.90
36654;DHT22;22650;49.350;20.898;2022-11-14T16:50:43;5.40;99.90
36654;DHT22;22650;49.350;20.898;2022-11-14T16:53:35;5.30;99.90
36654;DHT22;22650;49.350;20.898;2022-11-14T16:56:27;5.40;99.90
36654;DHT22;22650;49.350;20.898;2022-11-14T16:59:22;5.30;99.90
36654;DHT22;22650;49.350;20.898;2022-11-14T17:02:14;5.30;99.90
36654;DHT22;22650;49.350;20.898;2022-11-14T17:05:06;5.30;99.90
36654;DHT22;22650;49.350;20.898;2022-11-14T17:07:58;5.30;99.90
36654;DHT22;22650;49.350;20.898;2022-11-14T17:10:50;5.30;99.90
36654;DHT22;22650;49.350;20.898;2022-11-14T17:13:42;5.30;99.90
36654;DHT22;22650;49.350;20.898;2022-11-14T17:16:35;5.30;99.90
36654;DHT22;22650;49.350;20.898;2022-11-14T17:19:27;5.30;99.90
36654;DHT22;22650;49.350;20.898;2022-11-14T17:22:20;5.30;99.90
36654;DHT22;22650;49.350;20.898;2022-11-14T17:25:12;5.30;99.90
36654;DHT22;22650;49.350;20.898;2022-11-14T17:28:04;5.30;99.90
36654;DHT22;22650;49.350;20.898;2022-11-14T17:30:55;5.30;99.90
36654;DHT22;22650;49.350;20.898;2022-11-14T17:33:53;5.30;99.90
36654;DHT22;22650;49.350;20.898;2022-11-14T17:36:45;5.30;99.90
36654;DHT22;22650;49.350;20.898;2022-11-14T17:39:37;5.30;99.90
36654;DHT22;22650;49.350;20.898;2022-11-14T17:42:29;5.30;99.90
36654;DHT22;22650;49.350;20.898;2022-11-14T17:45:21;5.30;99.90
36654;DHT22;22650;49.350;20.898;2022-11-14T17:48:13;5.30;99.90
36654;DHT22;22650;49.350;20.898;2022-11-14T17:51:10;5.40;99.90
36654;DHT22;22650;49.350;20.898;2022-11-14T17:54:02;5.40;99.90
36654;DHT22;22650;49.350;20.898;2022-11-14T17:56:54;5.30;99.90
36654;DHT22;22650;49.350;20.898;2022-11-14T17:59:46;5.30;99.90
36654;DHT22;22650;49.350;20.898;2022-11-14T18:02:38;5.30;99.90
36654;DHT22;22650;49.350;20.898;2022-11-14T18:05:30;5.30;99.90
36654;DHT22;22650;49.350;20.898;2022-11-14T18:08:24;5.30;99.90
36654;DHT22;22650;49.350;20.898;2022-11-14T18:11:16;5.30;99.90
36654;DHT22;22650;49.350;20.898;2022-11-14T18:14:09;5.30;99.90
36654;DHT22;22650;49.350;20.898;2022-11-14T18:17:02;5.30;99.90
36654;DHT22;22650;49.350;20.898;2022-11-14T18:20:03;5.30;99.90
36654;DHT22;22650;49.350;20.898;2022-11-14T18:22:55;5.30;99.90
36654;DHT22;22650;49.350;20.898;2022-11-14T18:25:48;5.30;99.90
36654;DHT22;22650;49.350;20.898;2022-11-14T18:28:41;5.30;99.90
36654;DHT22;22650;49.350;20.898;2022-11-14T18:31:33;5.30;99.90
36654;DHT22;22650;49.350;20.898;2022-11-14T18:34:24;5.30;99.90